Time;durP1;ratioP1;P1;durP2;ratioP2;P2;SDS_P1;SDS_P2;PMS_P1;PMS_P2;Temp;Humidity;BMP_temperature;BMP_pressure;BME280_temperature;BME280_humidity;BME280_pressure;Samples;Min_cycle;Max_cycle;Signal;HPM_P1;HPM_P2
2022/04/16 00:01:49;;;;;;;19.02;11.00;;;;;;;9.94;88.72;97278.66;6283765;22;20005;-84
2022/04/16 00:04:15;;;;;;;20.58;11.07;;;;;;;9.88;88.25;97277.22;6284666;22;20358;-84
2022/04/16 00:06:40;;;;;;;16.33;9.13;;;;;;;9.91;88.24;97287.72;6309937;22;20001;-84
2022/04/16 00:09:06;;;;;;;18.13;9.82;;;;;;;9.77;89.26;97290.41;6283440;22;19999;-84
2022/04/16 00:11:32;;;;;;;13.57;8.68;;;;;;;9.73;90.32;97294.22;6284378;22;20011;-84
2022/04/16 00:13:58;;;;;;;17.48;9.68;;;;;;;9.62;91.00;97286.03;6283322;22;20006;-83
2022/04/16 00:16:27;;;;;;;14.98;9.18;;;;;;;9.57;91.34;97288.97;6283787;22;20506;-83
2022/04/16 00:18:56;;;;;;;19.23;10.15;;;;;;;9.58;91.77;97280.03;6283747;22;20003;-84
2022/04/16 00:21:22;;;;;;;19.17;10.00;;;;;;;9.61;92.00;97271.81;6311537;22;20060;-84
2022/04/16 00:23:48;;;;;;;17.42;9.63;;;;;;;9.55;92.48;97274.88;6285920;22;20081;-84
2022/04/16 00:26:14;;;;;;;17.70;9.98;;;;;;;9.61;92.56;97270.97;6286004;22;20002;-84
2022/04/16 00:28:40;;;;;;;20.60;10.35;;;;;;;9.58;93.28;97276.50;6285747;22;20374;-84
2022/04/16 00:31:05;;;;;;;17.42;11.05;;;;;;;9.62;93.24;97270.88;6286664;22;20003;-84
2022/04/16 00:33:33;;;;;;;20.10;9.93;;;;;;;9.63;93.67;97271.72;6311412;22;20026;-84
2022/04/16 00:36:00;;;;;;;26.63;10.65;;;;;;;9.62;93.94;97280.69;6311930;22;20003;-85
2022/04/16 00:38:26;;;;;;;23.85;11.25;;;;;;;9.60;93.69;97278.09;6310992;22;20010;-84
2022/04/16 00:40:52;;;;;;;16.10;10.63;;;;;;;9.54;93.95;97273.16;6286075;22;20070;-84
2022/04/16 00:43:27;;;;;;;18.13;10.57;;;;;;;9.44;93.16;97271.16;6285968;22;20007;-84
2022/04/16 00:45:53;;;;;;;16.38;10.48;;;;;;;9.41;92.56;97288.22;6311481;22;20002;-84
2022/04/16 00:48:19;;;;;;;16.70;10.10;;;;;;;9.31;93.97;97286.22;6286239;22;20503;-85
2022/04/16 00:50:46;;;;;;;17.15;10.32;;;;;;;9.24;94.38;97285.72;6286266;22;20013;-84
2022/04/16 00:53:14;;;;;;;24.60;10.38;;;;;;;9.22;94.81;97283.16;6311578;22;20005;-84
2022/04/16 00:55:40;;;;;;;19.52;10.40;;;;;;;9.24;95.00;97275.03;6285793;22;20002;-84
2022/04/16 00:58:06;;;;;;;16.92;10.25;;;;;;;9.28;94.82;97284.59;6285718;22;20408;-84
2022/04/16 01:00:31;;;;;;;21.83;10.70;;;;;;;9.25;94.55;97288.31;6285495;22;20082;-84
2022/04/16 01:02:57;;;;;;;21.58;10.40;;;;;;;9.03;95.24;97285.22;6285516;22;20003;-84
2022/04/16 01:05:23;;;;;;;17.77;10.70;;;;;;;9.08;95.53;97295.59;6284969;22;20007;-84
2022/04/16 01:07:53;;;;;;;22.80;10.60;;;;;;;9.04;95.26;97297.63;6285362;22;20082;-84
2022/04/16 01:10:21;;;;;;;23.40;10.57;;;;;;;8.98;96.22;97295.28;6285119;22;20007;-85
2022/04/16 01:12:47;;;;;;;23.08;11.43;;;;;;;8.95;96.82;97289.28;6310556;22;20003;-84
2022/04/16 01:15:13;;;;;;;22.45;10.95;;;;;;;9.01;96.12;97286.25;6285133;22;20010;-84
2022/04/16 01:17:40;;;;;;;20.15;11.35;;;;;;;8.98;96.16;97289.09;6285344;22;19999;-84
2022/04/16 01:20:06;;;;;;;18.92;10.98;;;;;;;8.90;96.48;97281.56;6285539;22;20002;-84
2022/04/16 01:22:32;;;;;;;21.35;10.95;;;;;;;8.95;96.62;97290.13;6285344;22;20006;-84
2022/04/16 01:24:59;;;;;;;18.42;11.80;;;;;;;8.92;96.51;97281.47;6285337;22;20038;-84
2022/04/16 01:27:25;;;;;;;20.08;11.27;;;;;;;8.94;97.17;97280.44;6285830;22;20003;-83
2022/04/16 01:29:53;;;;;;;20.38;12.07;;;;;;;8.92;97.26;97268.13;6284973;22;20013;-84
2022/04/16 01:32:19;;;;;;;22.02;10.30;;;;;;;8.88;95.97;97278.13;6284963;22;20017;-84
2022/04/16 01:34:45;;;;;;;17.70;10.45;;;;;;;8.77;96.81;97280.56;6285273;22;20010;-84
2022/04/16 01:37:12;;;;;;;18.48;11.23;;;;;;;8.76;98.36;97294.84;6285279;22;20014;-84
2022/04/16 01:39:38;;;;;;;19.73;10.07;;;;;;;8.77;98.41;97291.22;6310596;22;20460;-84
2022/04/16 01:42:04;;;;;;;16.52;10.40;;;;;;;8.70;98.62;97284.56;6285232;22;20003;-84
2022/04/16 01:44:30;;;;;;;16.75;10.60;;;;;;;8.60;98.80;97270.03;6284736;22;20007;-79
2022/04/16 01:46:56;;;;;;;15.20;9.23;;;;;;;8.65;98.49;97275.94;6309902;22;20005;-85
2022/04/16 01:49:22;;;;;;;17.17;10.05;;;;;;;8.59;98.31;97286.97;6284592;22;20033;-84
2022/04/16 01:51:48;;;;;;;35.70;16.30;;;;;;;8.36;98.82;97274.13;6284770;22;20052;-84
2022/04/16 01:54:14;;;;;;;56.72;20.42;;;;;;;8.40;99.35;97294.34;6285065;22;19999;-84
2022/04/16 01:56:40;;;;;;;54.10;21.27;;;;;;;8.36;99.56;97284.78;6284702;22;20457;-84
2022/04/16 01:59:08;;;;;;;31.77;15.40;;;;;;;8.26;100.00;97294.22;6285297;22;20003;-83
2022/04/16 02:01:34;;;;;;;25.23;13.63;;;;;;;8.24;100.00;97291.66;6285373;22;20007;-83
2022/04/16 02:03:59;;;;;;;24.63;12.88;;;;;;;8.23;100.00;97297.03;6311124;22;20010;-82
2022/04/16 02:06:25;;;;;;;44.30;17.95;;;;;;;8.22;100.00;97303.31;6285436;22;20098;-83
2022/04/16 02:08:51;;;;;;;26.13;12.85;;;;;;;8.21;100.00;97298.94;6284017;22;19999;-83
2022/04/16 02:11:17;;;;;;;24.88;12.23;;;;;;;8.19;100.00;97296.34;6285153;22;20006;-83
2022/04/16 02:13:43;;;;;;;23.65;11.75;;;;;;;8.19;100.00;97299.03;6285221;22;20013;-83
2022/04/16 02:16:08;;;;;;;25.67;11.40;;;;;;;8.18;100.00;97298.16;6285078;22;20011;-84
2022/04/16 02:18:34;;;;;;;22.05;12.07;;;;;;;8.17;100.00;97301.78;6284070;22;20025;-83
2022/04/16 02:20:59;;;;;;;24.58;10.60;;;;;;;8.10;100.00;97294.22;6284604;22;20010;-83
2022/04/16 02:23:25;;;;;;;24.17;12.23;;;;;;;8.09;100.00;97296.00;6285395;22;20003;-82
2022/04/16 02:25:53;;;;;;;25.08;12.35;;;;;;;8.04;100.00;97294.56;6285493;22;20010;-83
2022/04/16 02:28:21;;;;;;;29.88;12.63;;;;;;;7.98;100.00;97289.56;6285368;22;20040;-83
2022/04/16 02:30:47;;;;;;;25.80;12.32;;;;;;;7.98;100.00;97295.75;6310336;22;20095;-83
2022/04/16 02:33:13;;;;;;;26.60;12.13;;;;;;;7.99;100.00;97285.97;6284724;22;20061;-83
2022/04/16 02:35:40;;;;;;;25.83;13.82;;;;;;;8.05;100.00;97302.47;6284710;22;20434;-83
2022/04/16 02:38:05;;;;;;;31.25;12.75;;;;;;;8.01;100.00;97297.38;6310709;22;20003;-83
2022/04/16 02:40:31;;;;;;;29.60;13.70;;;;;;;7.92;100.00;97292.56;6310800;22;20081;-83
2022/04/16 02:42:56;;;;;;;28.33;13.73;;;;;;;7.95;100.00;97300.41;6283820;22;20031;-83
2022/04/16 02:48:07;;;;;;;21.77;11.93;;;;;;;7.91;100.00;97291.72;6314785;22;20014;-83
2022/04/16 02:50:33;;;;;;;18.00;10.75;;;;;;;7.83;100.00;97295.75;6285171;22;20019;-83
2022/04/16 02:52:58;;;;;;;16.40;10.60;;;;;;;7.83;100.00;97304.59;6310745;22;20025;-83
2022/04/16 02:55:24;;;;;;;17.85;9.73;;;;;;;7.80;100.00;97304.78;6284646;22;20010;-83
2022/04/16 02:57:50;;;;;;;18.02;9.98;;;;;;;7.72;100.00;97299.00;6284490;22;20050;-82
2022/04/16 03:00:17;;;;;;;16.70;9.25;;;;;;;7.71;100.00;97313.25;6285227;22;20033;-83
2022/04/16 03:02:42;;;;;;;20.55;10.30;;;;;;;7.67;100.00;97306.38;6284221;22;20082;-82
2022/04/16 03:05:09;;;;;;;16.02;9.48;;;;;;;7.72;100.00;97322.13;6284536;22;20040;-83
2022/04/16 03:07:38;;;;;;;19.13;10.50;;;;;;;7.66;100.00;97298.50;6285160;22;20007;-83
2022/04/16 03:10:06;;;;;;;27.38;12.98;;;;;;;7.70;100.00;97300.88;6310495;22;20010;-82
2022/04/16 03:12:47;;;;;;;25.15;12.15;;;;;;;7.80;100.00;97318.09;6285390;22;20009;-82
2022/04/16 03:17:58;;;;;;;34.80;12.82;;;;;;;7.73;100.00;97311.38;6314234;22;20225;-83
2022/04/16 03:20:25;;;;;;;32.92;13.85;;;;;;;7.85;100.00;97324.00;6284605;22;20030;-82
2022/04/16 03:22:51;;;;;;;60.60;20.40;;;;;;;7.83;100.00;97325.91;6310573;22;20071;-83
2022/04/16 03:25:17;;;;;;;34.15;13.02;;;;;;;7.80;100.00;97319.88;6284271;22;20379;-83
2022/04/16 03:27:42;;;;;;;14.68;9.52;;;;;;;7.70;100.00;97316.84;6310102;22;20002;-83
2022/04/16 03:30:09;;;;;;;15.63;9.70;;;;;;;7.69;100.00;97325.78;6310014;22;20006;-83
2022/04/16 03:32:39;;;;;;;15.65;9.75;;;;;;;7.62;100.00;97332.41;6284579;22;20003;-84
2022/04/16 03:35:05;;;;;;;25.13;10.50;;;;;;;7.51;100.00;97327.63;6283955;22;20400;-83
2022/04/16 03:37:33;;;;;;;17.33;10.18;;;;;;;7.56;100.00;97341.56;6310464;22;20006;-83
2022/04/16 03:39:58;;;;;;;20.75;11.45;;;;;;;7.47;100.00;97335.88;6285739;22;20017;-84
2022/04/16 03:42:24;;;;;;;66.80;24.20;;;;;;;7.37;100.00;97345.28;6285207;22;20026;-84
2022/04/16 03:44:50;;;;;;;80.97;27.85;;;;;;;7.22;100.00;97344.28;6285116;22;20032;-83
2022/04/16 03:47:15;;;;;;;65.68;26.20;;;;;;;7.17;100.00;97345.47;6285118;22;20128;-84
2022/04/16 03:49:41;;;;;;;53.22;21.00;;;;;;;7.22;100.00;97338.09;6311021;22;20015;-83
2022/04/16 03:52:07;;;;;;;60.42;22.77;;;;;;;7.19;100.00;97339.13;6284517;22;20023;-83
2022/04/16 04:00:01;;;;;;;41.15;17.67;;;;;;;7.24;100.00;97349.50;6313641;22;20010;-84
2022/04/16 04:02:30;;;;;;;25.00;12.88;;;;;;;7.24;100.00;97361.00;6309235;22;20400;-83
2022/04/16 04:04:59;;;;;;;22.20;11.32;;;;;;;7.27;100.00;97367.97;6283972;22;19999;-83
2022/04/16 04:07:25;;;;;;;27.80;12.05;;;;;;;7.26;100.00;97363.59;6309432;22;20067;-84
2022/04/16 04:09:51;;;;;;;21.10;13.88;;;;;;;7.38;100.00;97366.47;6310223;22;20068;-84
2022/04/16 04:12:17;;;;;;;22.55;13.98;;;;;;;7.49;100.00;97365.91;6284170;22;20454;-83
2022/04/16 04:14:44;;;;;;;31.38;16.05;;;;;;;7.64;100.00;97359.78;6283578;22;20009;-83
2022/04/16 04:17:10;;;;;;;37.05;18.67;;;;;;;7.77;100.00;97363.50;6309188;22;20081;-83
2022/04/16 04:19:38;;;;;;;31.52;18.70;;;;;;;7.83;100.00;97357.00;6283535;22;20010;-83
2022/04/16 04:22:05;;;;;;;41.65;19.73;;;;;;;7.92;100.00;97356.50;6309255;22;20026;-83
2022/04/16 04:24:30;;;;;;;40.50;20.25;;;;;;;8.14;100.00;97365.91;6283142;22;20354;-85
2022/04/16 04:27:00;;;;;;;34.38;19.17;;;;;;;8.38;99.78;97373.50;6283475;22;19999;-84
2022/04/16 04:29:27;;;;;;;29.95;17.30;;;;;;;8.48;98.96;97369.38;6284009;22;20057;-84
2022/04/16 04:31:53;;;;;;;35.35;18.02;;;;;;;8.49;98.24;97376.44;6284112;22;20007;-84
2022/04/16 04:34:19;;;;;;;42.10;17.63;;;;;;;8.45;98.12;97369.53;6309626;22;20231;-83
2022/04/16 04:36:45;;;;;;;32.50;18.17;;;;;;;8.67;96.62;97386.03;6283444;22;19995;-83
2022/04/16 04:39:10;;;;;;;36.92;18.27;;;;;;;8.63;96.69;97381.81;6284213;22;20010;-83
2022/04/16 04:41:36;;;;;;;34.70;17.92;;;;;;;8.70;95.57;97375.19;6283864;22;20038;-83
2022/04/16 04:44:01;;;;;;;42.22;19.63;;;;;;;8.87;95.08;97388.41;6284355;22;20003;-83
2022/04/16 04:46:27;;;;;;;52.92;19.27;;;;;;;8.94;94.21;97387.13;6283872;22;20003;-85
2022/04/16 04:48:54;;;;;;;41.42;19.27;;;;;;;8.99;93.23;97377.03;6285005;22;20419;-83
2022/04/16 04:51:19;;;;;;;44.55;19.38;;;;;;;9.18;90.81;97376.81;6311378;22;20351;-85
2022/04/16 04:53:45;;;;;;;32.20;18.10;;;;;;;9.39;89.99;97393.34;6311739;22;19995;-84
2022/04/16 04:56:11;;;;;;;34.85;18.38;;;;;;;9.85;87.36;97386.94;6311857;22;19999;-85
2022/04/16 04:58:36;;;;;;;28.65;16.63;;;;;;;10.28;83.79;97379.81;6284853;22;20082;-85
2022/04/16 05:01:04;;;;;;;25.50;13.38;;;;;;;10.43;82.43;97386.84;6310414;22;20048;-85
2022/04/16 05:03:29;;;;;;;23.48;13.40;;;;;;;10.52;82.16;97399.63;6284958;22;20022;-85
2022/04/16 05:05:55;;;;;;;21.73;14.93;;;;;;;10.44;82.49;97393.06;6285153;22;20005;-86
2022/04/16 05:08:20;;;;;;;26.98;13.50;;;;;;;10.66;81.41;97388.06;6287769;22;20002;-85
2022/04/16 05:10:46;;;;;;;19.40;12.75;;;;;;;10.79;80.39;97386.31;6286352;22;20128;-85
2022/04/16 05:13:12;;;;;;;20.40;12.63;;;;;;;11.23;78.27;97392.22;6286191;22;20059;-86
2022/04/16 05:15:37;;;;;;;18.35;12.20;;;;;;;11.48;76.59;97385.22;6285558;22;20002;-85
2022/04/16 05:18:03;;;;;;;23.45;11.63;;;;;;;12.10;74.23;97384.44;6312093;22;19999;-85
2022/04/16 05:20:28;;;;;;;23.90;13.43;;;;;;;12.23;72.63;97393.34;6285659;22;20014;-85
2022/04/16 05:22:54;;;;;;;17.30;12.05;;;;;;;12.28;72.20;97380.44;6285806;22;20002;-85
2022/04/16 05:25:19;;;;;;;36.97;20.13;;;;;;;12.88;69.52;97380.53;6285532;22;20002;-86
2022/04/16 05:27:46;;;;;;;31.55;13.43;;;;;;;13.82;65.39;97369.78;6285402;22;20011;-86
2022/04/16 05:30:22;;;;;;;25.90;13.35;;;;;;;13.76;63.90;97367.56;6285603;22;20087;-85
2022/04/16 05:32:50;;;;;;;26.25;13.60;;;;;;;14.45;62.20;97377.34;6313990;22;20431;-86
2022/04/16 05:35:15;;;;;;;18.50;12.02;;;;;;;15.58;57.38;97359.78;6286845;22;20014;-86
2022/04/16 05:37:42;;;;;;;32.72;19.30;;;;;;;16.50;54.16;97350.81;6288705;22;20351;-85
2022/04/16 05:40:09;;;;;;;50.85;26.17;;;;;;;17.08;52.28;97353.69;6311843;22;20102;-86
2022/04/16 05:42:42;;;;;;;22.00;11.43;;;;;;;17.81;49.69;97347.78;6286070;22;20015;-85
2022/04/16 05:45:08;;;;;;;22.15;12.25;;;;;;;19.21;46.85;97345.78;6286139;22;20037;-85
2022/04/16 05:47:34;;;;;;;31.45;16.05;;;;;;;19.69;45.10;97324.56;6311715;22;20512;-86
2022/04/16 05:49:59;;;;;;;24.02;12.77;;;;;;;20.01;44.58;97343.84;6286063;22;20097;-84
2022/04/16 05:52:25;;;;;;;26.88;12.90;;;;;;;19.97;43.44;97334.28;6311366;22;20014;-85
2022/04/16 05:54:52;;;;;;;36.80;13.32;;;;;;;20.07;43.92;97341.50;6311050;22;19995;-86
2022/04/16 05:57:19;;;;;;;23.33;14.38;;;;;;;20.82;41.82;97330.75;6286375;22;20068;-86
2022/04/16 05:59:45;;;;;;;22.98;11.93;;;;;;;21.27;41.35;97335.00;6285448;22;20009;-88
2022/04/16 06:02:11;;;;;;;21.10;12.48;;;;;;;20.97;41.53;97331.84;6285993;22;20047;-86
2022/04/16 06:04:37;;;;;;;29.83;12.10;;;;;;;21.58;40.24;97322.47;6285361;22;20002;-86
2022/04/16 06:07:02;;;;;;;36.00;13.27;;;;;;;22.43;38.94;97340.13;6311081;22;20346;-85
2022/04/16 06:09:29;;;;;;;28.35;16.85;;;;;;;22.67;38.26;97337.41;6289834;22;20067;-83
2022/04/16 06:12:05;;;;;;;36.88;22.95;;;;;;;21.50;40.43;97344.25;6284051;22;20077;-78
2022/04/16 06:14:31;;;;;;;33.10;19.67;;;;;;;20.81;42.51;97350.78;6280926;22;20443;-78
2022/04/16 06:16:57;;;;;;;27.85;18.15;;;;;;;21.11;42.27;97356.69;6280152;22;20017;-79
2022/04/16 06:19:23;;;;;;;28.38;16.15;;;;;;;21.08;42.17;97364.19;6307175;22;20006;-77
2022/04/16 06:21:49;;;;;;;21.52;15.20;;;;;;;19.79;44.76;97360.63;6306211;22;20940;-79
2022/04/16 06:24:15;;;;;;;29.88;13.30;;;;;;;19.07;46.21;97373.44;6280072;22;20089;-79
2022/04/16 06:26:42;;;;;;;36.25;17.58;;;;;;;20.12;44.28;97371.75;6280262;22;20030;-79
2022/04/16 06:29:08;;;;;;;25.77;12.98;;;;;;;21.03;42.41;97365.66;6307242;22;20006;-80
2022/04/16 06:31:33;;;;;;;24.15;12.43;;;;;;;20.80;41.89;97373.56;6306058;22;20007;-80
2022/04/16 06:33:59;;;;;;;21.90;13.23;;;;;;;21.50;41.31;97379.63;6333709;22;20002;-80
2022/04/16 06:36:24;;;;;;;34.25;15.32;;;;;;;22.77;39.64;97365.28;6280298;22;20523;-79
2022/04/16 06:38:50;;;;;;;17.42;11.57;;;;;;;23.60;37.09;97357.41;6305903;22;20397;-79
2022/04/16 06:41:16;;;;;;;21.15;12.38;;;;;;;22.81;40.16;97374.84;6280222;22;20045;-80
2022/04/16 06:43:41;;;;;;;19.02;10.65;;;;;;;22.44;40.07;97369.97;6280272;22;20358;-77
2022/04/16 06:46:07;;;;;;;14.48;9.75;;;;;;;22.02;40.13;97363.88;6280097;22;20027;-79
2022/04/16 06:48:32;;;;;;;14.20;7.68;;;;;;;20.95;39.79;97349.31;6305522;22;20469;-78
2022/04/16 06:50:58;;;;;;;16.02;7.63;;;;;;;19.48;43.02;97381.03;6305887;22;20014;-79
2022/04/16 06:53:26;;;;;;;15.85;8.73;;;;;;;19.29;43.90;97381.97;6280020;22;19999;-79
2022/04/16 06:55:52;;;;;;;16.00;7.68;;;;;;;19.11;44.43;97388.38;6305745;22;20030;-79
2022/04/16 06:58:17;;;;;;;24.92;9.45;;;;;;;18.26;45.92;97380.44;6306343;22;20408;-80
2022/04/16 07:00:43;;;;;;;24.45;14.25;;;;;;;17.91;47.05;97393.75;6333800;22;20007;-79
2022/04/16 07:03:08;;;;;;;14.80;8.95;;;;;;;17.66;48.27;97392.47;6306117;22;20002;-76
2022/04/16 07:05:34;;;;;;;15.60;7.35;;;;;;;17.59;49.43;97402.16;6279928;22;19999;-77
2022/04/16 07:08:00;;;;;;;12.82;8.00;;;;;;;17.30;49.38;97386.75;6280272;22;20068;-77
2022/04/16 07:10:25;;;;;;;16.02;7.18;;;;;;;17.10;50.88;97379.56;6280970;22;20133;-78
2022/04/16 07:12:51;;;;;;;20.02;7.90;;;;;;;17.07;51.10;97382.56;6308102;22;20002;-78
2022/04/16 07:15:16;;;;;;;16.00;6.95;;;;;;;17.29;50.08;97373.34;6334771;22;20036;-86
2022/04/16 07:17:42;;;;;;;16.17;8.27;;;;;;;18.22;47.94;97379.00;6282796;22;20063;-81
2022/04/16 07:20:08;;;;;;;18.83;7.32;;;;;;;18.95;45.49;97370.03;6279486;22;20006;-77
2022/04/16 07:22:35;;;;;;;9.95;4.50;;;;;;;19.38;42.77;97363.94;6305624;22;20003;-76
2022/04/16 07:25:02;;;;;;;15.90;7.72;;;;;;;19.78;42.37;97366.22;6279458;22;20036;-76
2022/04/16 07:27:28;;;;;;;13.23;5.78;;;;;;;20.24;40.66;97337.88;6305872;22;19998;-75
2022/04/16 07:29:58;;;;;;;17.92;5.97;;;;;;;21.37;39.85;97346.59;6304942;22;20053;-76
2022/04/16 07:32:27;;;;;;;14.68;5.60;;;;;;;22.45;36.28;97332.66;6333006;22;20353;-75
2022/04/16 07:34:55;;;;;;;10.80;4.68;;;;;;;23.53;34.80;97329.16;6332999;22;20002;-76
2022/04/16 07:37:22;;;;;;;8.20;4.32;;;;;;;24.63;33.40;97320.31;6307349;22;20434;-75
2022/04/16 07:39:48;;;;;;;9.50;4.95;;;;;;;25.53;30.94;97310.81;6335133;22;20006;-77
2022/04/16 07:42:13;;;;;;;12.18;5.70;;;;;;;25.70;29.99;97300.44;6282357;22;20362;-77
2022/04/16 07:44:39;;;;;;;20.75;7.70;;;;;;;27.35;29.21;97297.78;6308495;22;20007;-77
2022/04/16 07:47:05;;;;;;;15.02;7.63;;;;;;;27.33;28.00;97294.41;6308597;22;20006;-75
2022/04/16 07:49:30;;;;;;;13.98;4.80;;;;;;;27.35;26.76;97287.66;6336229;22;20015;-77
2022/04/16 07:51:56;;;;;;;18.33;5.22;;;;;;;27.78;26.82;97281.91;6336241;22;19995;-76
2022/04/16 07:54:21;;;;;;;11.65;4.90;;;;;;;28.71;25.55;97278.94;6282700;22;20064;-77
2022/04/16 07:56:47;;;;;;;12.13;4.93;;;;;;;29.93;24.67;97273.34;6308867;22;20002;-77
2022/04/16 07:59:13;;;;;;;12.50;5.40;;;;;;;29.98;24.77;97281.78;6308435;22;19998;-77
2022/04/16 08:01:38;;;;;;;15.70;4.03;;;;;;;29.84;24.37;97266.41;6309264;22;20014;-77
2022/04/16 08:04:04;;;;;;;8.68;3.83;;;;;;;30.67;23.64;97272.50;6308728;22;20025;-76
2022/04/16 08:06:30;;;;;;;9.85;5.47;;;;;;;30.64;22.66;97258.03;6336281;22;19995;-77
2022/04/16 08:09:01;;;;;;;10.25;5.85;;;;;;;31.61;22.56;97261.81;6308757;22;20038;-77
2022/04/16 08:11:31;;;;;;;12.73;7.30;;;;;;;31.71;21.63;97266.78;6284067;22;20081;-77
2022/04/16 08:13:56;;;;;;;6.88;4.85;;;;;;;31.83;22.48;97262.13;6308850;22;20061;-77
2022/04/16 08:16:22;;;;;;;4.65;3.55;;;;;;;32.48;21.23;97249.16;6308741;22;20003;-78
2022/04/16 08:18:47;;;;;;;11.35;4.72;;;;;;;33.25;20.98;97243.16;6308862;22;20009;-78
2022/04/16 08:21:13;;;;;;;8.82;4.18;;;;;;;31.81;21.73;97245.75;6282351;22;20324;-78
2022/04/16 08:23:44;;;;;;;9.10;3.55;;;;;;;31.45;21.86;97251.34;6309088;22;20003;-77
2022/04/16 08:26:11;;;;;;;12.30;4.60;;;;;;;31.06;22.33;97248.06;6284286;22;20385;-78
2022/04/16 08:28:36;;;;;;;11.32;4.05;;;;;;;31.08;22.09;97240.34;6308829;22;20442;-78
2022/04/16 08:31:02;;;;;;;9.02;3.72;;;;;;;30.02;23.54;97255.44;6336142;22;20002;-78
2022/04/16 08:33:31;;;;;;;11.52;3.90;;;;;;;29.93;23.75;97245.75;6282098;22;20002;-78
2022/04/16 08:35:56;;;;;;;14.48;4.68;;;;;;;29.84;23.93;97247.09;6308420;22;20056;-78
2022/04/16 08:38:22;;;;;;;12.98;4.93;;;;;;;29.10;24.32;97252.34;6308281;22;20006;-78
2022/04/16 08:40:48;;;;;;;8.02;4.28;;;;;;;28.18;27.21;97242.34;6336100;22;20006;-77
2022/04/16 08:43:14;;;;;;;9.15;4.78;;;;;;;27.87;26.69;97250.38;6310592;22;20422;-78
2022/04/16 08:45:40;;;;;;;24.88;4.38;;;;;;;27.62;25.76;97249.28;6284329;22;20002;-77
2022/04/16 08:48:06;;;;;;;8.77;4.07;;;;;;;27.69;25.95;97244.63;6310523;22;19999;-77
2022/04/16 08:50:33;;;;;;;8.63;4.25;;;;;;;27.26;26.09;97255.06;6310237;22;20023;-77
2022/04/16 08:52:59;;;;;;;7.97;3.67;;;;;;;27.28;26.98;97253.00;6310457;22;20070;-77
2022/04/16 08:55:24;;;;;;;9.25;3.35;;;;;;;27.92;25.59;97245.09;6310306;22;20331;-77
2022/04/16 08:57:53;;;;;;;8.68;3.50;;;;;;;27.54;25.52;97224.75;6310829;22;20009;-77
2022/04/16 09:00:19;;;;;;;13.15;3.17;;;;;;;28.48;25.04;97235.34;6310712;22;20490;-77
2022/04/16 09:02:56;;;;;;;8.18;4.55;;;;;;;29.93;25.07;97220.91;6310642;22;20125;-77
2022/04/16 09:05:23;;;;;;;10.05;3.38;;;;;;;30.52;22.86;97240.53;6310404;22;20076;-78
2022/04/16 09:07:51;;;;;;;12.10;5.10;;;;;;;30.71;22.87;97233.13;6284078;22;20091;-78
2022/04/16 09:10:17;;;;;;;11.73;4.55;;;;;;;31.49;21.68;97220.28;6284171;22;20033;-77
2022/04/16 09:12:42;;;;;;;11.60;5.18;;;;;;;31.73;21.82;97214.81;6309917;22;19998;-77
2022/04/16 09:15:09;;;;;;;7.13;3.65;;;;;;;32.11;21.59;97216.13;6310172;22;20048;-78
2022/04/16 09:17:36;;;;;;;8.77;3.95;;;;;;;32.71;21.00;97219.53;6284133;22;20081;-77
2022/04/16 09:20:03;;;;;;;7.32;2.90;;;;;;;32.98;20.38;97211.50;6310111;22;20094;-77
2022/04/16 09:22:37;;;;;;;12.18;3.47;;;;;;;33.29;20.60;97214.97;6309736;22;20002;-77
2022/04/16 09:25:04;;;;;;;5.03;2.60;;;;;;;33.31;19.71;97208.09;6310008;22;20003;-77
2022/04/16 09:27:49;;;;;;;6.75;2.53;;;;;;;32.55;20.28;97203.59;6337686;22;19999;-76
2022/04/16 09:30:29;;;;;;;10.00;5.32;;;;;;;32.33;20.77;97199.78;6310584;22;20098;-77
2022/04/16 09:32:59;;;;;;;9.05;2.83;;;;;;;31.73;20.97;97198.22;6284065;22;20103;-77
2022/04/16 09:35:29;;;;;;;8.35;3.47;;;;;;;30.61;21.25;97191.38;6283838;22;20007;-77
2022/04/16 09:37:59;;;;;;;5.55;3.10;;;;;;;31.53;20.81;97179.97;6283688;22;20033;-77
2022/04/16 09:40:31;;;;;;;20.23;9.00;;;;;;;30.03;21.77;97188.97;6283564;22;20082;-75
2022/04/16 09:43:01;;;;;;;4.90;3.22;;;;;;;29.60;22.38;97190.78;6284113;22;20003;-75
2022/04/16 09:45:27;;;;;;;5.22;2.70;;;;;;;31.47;21.01;97178.13;6310441;22;20010;-77
2022/04/16 09:47:53;;;;;;;6.63;2.78;;;;;;;32.74;20.55;97188.56;6283979;22;20002;-77
2022/04/16 09:50:23;;;;;;;5.82;3.22;;;;;;;32.09;20.70;97182.28;6337029;22;20019;-76
2022/04/16 09:52:54;;;;;;;8.23;3.42;;;;;;;31.89;20.39;97176.22;6283266;22;20007;-77
2022/04/16 09:55:22;;;;;;;5.60;3.15;;;;;;;32.31;20.28;97190.84;6309607;22;20006;-77
2022/04/16 09:57:51;;;;;;;5.93;2.65;;;;;;;31.99;20.52;97178.41;6309619;22;20051;-77
2022/04/16 10:00:17;;;;;;;4.82;2.95;;;;;;;31.78;21.26;97179.00;6310438;22;20055;-76
2022/04/16 10:02:43;;;;;;;10.27;3.60;;;;;;;30.82;22.16;97179.88;6283840;22;20032;-77
2022/04/16 10:05:10;;;;;;;12.40;3.92;;;;;;;30.08;22.96;97197.44;6283848;22;20009;-77
2022/04/16 10:07:36;;;;;;;7.03;3.03;;;;;;;29.79;23.59;97188.94;6283962;22;20095;-78
2022/04/16 10:10:06;;;;;;;3.55;2.67;;;;;;;30.31;23.06;97207.81;6309679;22;19999;-78
2022/04/16 10:15:22;;;;;;;6.60;3.35;;;;;;;29.56;23.83;97184.84;6313493;22;20009;-77
2022/04/16 10:17:51;;;;;;;4.50;2.90;;;;;;;28.49;24.50;97192.97;6309191;22;19999;-77
2022/04/16 10:20:21;;;;;;;11.60;3.42;;;;;;;28.81;24.06;97193.09;6283621;22;20002;-76
2022/04/16 10:22:57;;;;;;;12.05;3.40;;;;;;;28.90;23.99;97189.91;6309263;22;20002;-78
2022/04/16 10:25:29;;;;;;;4.50;2.50;;;;;;;27.71;25.09;97190.31;6283294;22;20053;-77
2022/04/16 10:28:03;;;;;;;7.68;2.65;;;;;;;26.88;25.89;97199.84;6336926;22;20005;-77
2022/04/16 10:30:55;;;;;;;4.38;2.75;;;;;;;27.30;25.59;97180.28;6309477;22;20393;-77
2022/04/16 10:33:27;;;;;;;3.92;3.00;;;;;;;28.25;24.57;97184.56;6302217;22;20026;-77
2022/04/16 10:35:56;;;;;;;7.53;2.75;;;;;;;28.52;23.95;97187.03;6309037;22;20079;-77
2022/04/16 10:38:43;;;;;;;5.25;2.53;;;;;;;28.20;23.96;97187.13;6309245;22;20002;-77
2022/04/16 10:41:13;;;;;;;6.35;2.78;;;;;;;28.22;24.42;97180.34;6282796;22;20036;-77
2022/04/16 10:43:39;;;;;;;8.70;2.70;;;;;;;28.26;24.35;97181.63;6309215;22;20458;-77
2022/04/16 10:46:07;;;;;;;7.30;2.95;;;;;;;28.74;24.23;97184.03;6282993;22;20028;-77
2022/04/16 10:48:37;;;;;;;4.68;2.35;;;;;;;28.38;23.74;97174.38;6308673;22;20026;-77
2022/04/16 10:51:06;;;;;;;3.53;2.72;;;;;;;28.11;24.30;97171.91;6308700;22;20443;-77
2022/04/16 10:53:33;;;;;;;9.60;2.50;;;;;;;27.88;24.21;97173.16;6308791;22;20003;-78
2022/04/16 10:56:22;;;;;;;5.68;2.78;;;;;;;27.04;24.98;97174.72;6282869;22;20449;-77
2022/04/16 10:58:59;;;;;;;4.28;2.42;;;;;;;26.65;26.08;97182.78;6309369;22;20077;-77
2022/04/16 11:01:26;;;;;;;4.78;2.58;;;;;;;26.00;26.31;97170.38;6283102;22;20390;-77
2022/04/16 11:03:54;;;;;;;3.70;2.67;;;;;;;26.08;26.52;97172.97;6282445;22;20064;-77
2022/04/16 11:06:19;;;;;;;5.25;2.60;;;;;;;26.81;25.80;97174.25;6336810;22;20006;-77
2022/04/16 11:08:46;;;;;;;7.35;2.38;;;;;;;27.53;25.82;97170.84;6308557;22;20354;-78
2022/04/16 11:11:13;;;;;;;7.78;2.38;;;;;;;27.86;25.13;97169.78;6308749;22;20009;-77
2022/04/16 11:13:40;;;;;;;7.78;2.65;;;;;;;28.43;24.54;97155.31;6282844;22;20490;-78
2022/04/16 11:16:06;;;;;;;4.78;2.20;;;;;;;29.10;23.72;97162.25;6308841;22;20003;-77
2022/04/16 11:18:38;;;;;;;7.20;2.33;;;;;;;29.85;22.61;97154.97;6282842;22;20402;-77
2022/04/16 11:21:07;;;;;;;10.00;3.35;;;;;;;30.31;22.16;97160.88;6336192;22;20347;-78
2022/04/16 11:23:39;;;;;;;7.75;3.47;;;;;;;29.25;23.10;97150.97;6336747;22;20346;-77
2022/04/16 11:34:24;;;;;;;9.57;6.03;;;;;;;28.18;25.40;97156.25;6312518;22;20081;-78
2022/04/16 11:36:50;;;;;;;5.90;3.65;;;;;;;27.45;25.70;97153.50;6282798;22;20031;-77
2022/04/16 11:39:36;;;;;;;4.55;2.80;;;;;;;28.36;25.18;97142.66;6282727;22;20008;-77
2022/04/16 11:42:07;;;;;;;7.85;2.70;;;;;;;29.30;24.24;97129.94;6307788;22;20007;-78
2022/04/16 11:44:43;;;;;;;8.35;3.05;;;;;;;28.89;24.85;97126.75;6308710;22;20003;-77
2022/04/16 11:47:09;;;;;;;4.30;2.33;;;;;;;29.13;24.66;97144.44;6336314;22;19998;-78